createdAt,value
2018-05-03T00:03:46.862Z,98976.50
2018-05-03T00:09:52.056Z,98982.63
2018-05-03T00:15:56.457Z,98982.75
2018-05-03T00:22:01.773Z,98982.88
2018-05-03T00:28:06.149Z,98986.99
2018-05-03T00:34:10.539Z,98994.08
2018-05-03T00:40:15.082Z,98995.66
2018-05-03T00:46:20.936Z,99002.61
2018-05-03T00:52:25.397Z,99001.05
2018-05-03T00:58:29.828Z,99001.98
2018-05-03T01:04:34.187Z,98999.41
2018-05-03T01:10:38.526Z,98997.43
2018-05-03T01:16:43.099Z,99005.77
2018-05-03T01:22:48.253Z,99011.05
2018-05-03T01:28:53.304Z,99009.99
2018-05-03T01:35:15.526Z,99014.16
2018-05-03T01:41:20.083Z,99028.20
2018-05-03T01:47:24.484Z,99035.14
2018-05-03T01:53:28.882Z,99045.26
2018-05-03T01:59:34.085Z,99048.98
2018-05-03T02:05:38.476Z,99049.50
2018-05-03T02:11:42.836Z,99051.66
2018-05-03T02:17:47.642Z,99046.74
2018-05-03T02:23:52.178Z,99038.63
2018-05-03T02:29:56.647Z,99033.29
2018-05-03T02:36:01.880Z,99041.48
2018-05-03T02:42:06.230Z,99036.75
2018-05-03T02:48:11.538Z,99045.73
2018-05-03T02:54:15.899Z,99049.50
2018-05-03T03:00:44.560Z,99046.13
2018-05-03T03:07:12.410Z,99050.08
2018-05-03T03:13:48.065Z,99058.61
2018-05-03T03:27:27.377Z,99058.48
2018-05-03T03:40:38.863Z,99062.59
2018-05-03T03:46:43.323Z,99056.80
2018-05-03T03:52:47.741Z,99069.45
2018-05-03T03:58:52.728Z,99073.02
2018-05-03T04:04:57.621Z,99068.67
2018-05-03T04:11:02.059Z,99066.27
2018-05-03T04:17:07.199Z,99077.39
2018-05-03T04:23:43.356Z,99086.17
2018-05-03T04:29:47.882Z,99096.18
2018-05-03T04:35:53.095Z,99107.20
2018-05-03T04:41:57.506Z,99125.98
2018-05-03T04:48:01.896Z,99139.73
2018-05-03T04:54:06.310Z,99138.70
2018-05-03T05:00:10.708Z,99150.30
2018-05-03T05:06:15.181Z,99160.23
2018-05-03T05:12:19.613Z,99177.22
2018-05-03T05:18:24.137Z,99182.25
2018-05-03T05:24:28.534Z,99201.34
2018-05-03T05:30:32.911Z,99210.51
2018-05-03T05:36:37.291Z,99219.32
2018-05-03T05:42:41.733Z,99217.89
2018-05-03T05:48:46.185Z,99227.47
2018-05-03T05:54:50.820Z,99239.53
2018-05-03T06:00:56.041Z,99241.48
2018-05-03T06:07:00.461Z,99245.80
2018-05-03T06:13:04.846Z,99249.11
2018-05-03T06:19:09.228Z,99276.86
2018-05-03T06:25:13.611Z,99283.55
2018-05-03T06:31:18.876Z,99275.42
2018-05-03T06:37:23.352Z,99284.91
2018-05-03T06:43:27.715Z,99289.55
2018-05-03T06:49:32.945Z,99278.50
2018-05-03T06:55:37.364Z,99290.13
2018-05-03T07:01:41.781Z,99294.61
2018-05-03T07:07:46.131Z,99307.52
2018-05-03T07:13:51.304Z,99303.03
2018-05-03T07:19:55.835Z,99308.77
2018-05-03T07:26:00.184Z,99314.77
2018-05-03T07:32:05.469Z,99327.82
2018-05-03T07:38:10.596Z,99331.59
2018-05-03T07:44:15.086Z,99340.11
2018-05-03T07:50:19.572Z,99354.50
2018-05-03T07:56:24.027Z,99354.34
2018-05-03T08:02:29.384Z,99366.63
2018-05-03T08:08:33.801Z,99371.50
2018-05-03T08:14:38.267Z,99374.47
2018-05-03T08:20:42.652Z,99382.03
2018-05-03T08:26:47.019Z,99392.97
2018-05-03T08:32:52.022Z,99409.98
2018-05-03T08:38:56.411Z,99410.74
2018-05-03T08:45:00.856Z,99407.77
2018-05-03T08:51:05.396Z,99416.27
2018-05-03T08:57:10.536Z,99424.72
2018-05-03T09:03:14.907Z,99434.05
2018-05-03T09:09:19.504Z,99431.92
2018-05-03T09:15:24.389Z,99431.79
2018-05-03T09:21:28.847Z,99438.38
2018-05-03T09:27:33.302Z,99450.94
2018-05-03T09:33:37.697Z,99444.63
2018-05-03T09:39:42.083Z,99441.03
2018-05-03T09:45:46.549Z,99427.97
2018-05-03T09:51:51.221Z,99435.67
2018-05-03T09:57:55.860Z,99445.45
2018-05-03T10:04:00.289Z,99456.30
2018-05-03T10:10:04.674Z,99455.55
2018-05-03T10:16:09.028Z,99466.22
2018-05-03T10:22:13.443Z,99470.38
2018-05-03T10:28:17.824Z,99469.09
2018-05-03T10:34:22.475Z,99485.80
2018-05-03T10:40:26.852Z,99487.52
2018-05-03T10:46:31.320Z,99479.91
2018-05-03T10:52:35.711Z,99502.62
2018-05-03T10:58:40.220Z,99494.02
2018-05-03T11:04:44.627Z,99484.81
2018-05-03T11:10:49.883Z,99489.23
2018-05-03T11:16:54.561Z,99490.78
2018-05-03T11:22:59.016Z,99487.82
2018-05-03T11:29:03.474Z,99486.09
2018-05-03T11:35:07.872Z,99496.73
2018-05-03T11:41:12.246Z,99494.41
2018-05-03T11:47:16.628Z,99499.18
2018-05-03T11:53:21.317Z,99497.68
2018-05-03T11:59:25.836Z,99501.66
2018-05-03T12:05:30.170Z,99489.31
2018-05-03T12:11:34.528Z,99505.17
2018-05-03T12:17:38.908Z,99509.52
2018-05-03T12:23:43.297Z,99504.16
2018-05-03T12:29:47.941Z,99506.52
2018-05-03T12:35:52.663Z,99500.97
2018-05-03T12:41:57.038Z,99500.39
2018-05-03T12:48:01.421Z,99498.68
2018-05-03T12:54:05.791Z,99515.09
2018-05-03T13:00:10.243Z,99508.16
2018-05-03T13:06:14.669Z,99511.28
2018-05-03T13:12:19.181Z,99515.03
2018-05-03T13:18:23.840Z,99515.34
2018-05-03T13:24:29.729Z,99513.21
2018-05-03T13:30:34.096Z,99506.20
2018-05-03T13:36:38.548Z,99507.36
2018-05-03T13:42:42.907Z,99508.03
2018-05-03T13:48:47.289Z,99518.11
2018-05-03T13:54:51.728Z,99523.13
2018-05-03T14:00:56.871Z,99519.17
2018-05-03T14:07:01.375Z,99519.84
2018-05-03T14:13:05.875Z,99523.98
2018-05-03T14:19:10.208Z,99517.41
2018-05-03T14:25:14.665Z,99532.91
2018-05-03T14:31:19.969Z,99522.02
2018-05-03T14:37:24.607Z,99519.48
2018-05-03T14:43:29.732Z,99519.27
2018-05-03T14:49:34.860Z,99515.33
2018-05-03T14:55:39.292Z,99521.05
2018-05-03T15:01:43.784Z,99532.70
2018-05-03T15:07:48.231Z,99536.84
2018-05-03T15:13:53.407Z,99539.64
2018-05-03T15:19:57.799Z,99536.59
2018-05-03T15:36:40.091Z,99547.98
2018-05-03T15:42:45.277Z,99543.72
2018-05-03T15:48:50.731Z,99559.00
2018-05-03T15:54:55.701Z,99559.19
2018-05-03T16:01:00.146Z,99569.73
2018-05-03T16:07:05.288Z,99564.91
2018-05-03T16:13:09.766Z,99560.56
2018-05-03T16:19:14.116Z,99568.45
2018-05-03T16:25:18.588Z,99580.66
2018-05-03T16:31:23.281Z,99572.55
2018-05-03T16:37:27.655Z,99576.83
2018-05-03T16:43:32.092Z,99588.93
2018-05-03T16:49:37.309Z,99589.72
2018-05-03T16:55:41.744Z,99593.07
2018-05-03T17:01:46.100Z,99594.37
2018-05-03T17:07:51.163Z,99599.87
2018-05-03T17:13:55.695Z,99610.59
2018-05-03T17:20:00.048Z,99603.11
2018-05-03T17:26:04.424Z,99609.53
2018-05-03T17:32:08.815Z,99617.98
2018-05-03T17:38:13.318Z,99620.47
2018-05-03T17:44:18.646Z,99634.78
2018-05-03T17:50:23.296Z,99645.22
2018-05-03T17:56:28.384Z,99657.87
2018-05-03T18:02:33.503Z,99666.20
2018-05-03T18:08:37.851Z,99677.58
2018-05-03T18:14:43.142Z,99678.45
2018-05-03T18:20:47.553Z,99689.95
2018-05-03T18:26:52.110Z,99709.55
2018-05-03T18:32:57.248Z,99723.91
2018-05-03T18:39:01.643Z,99738.79
2018-05-03T18:45:06.050Z,99748.05
2018-05-03T18:51:11.207Z,99753.73
2018-05-03T18:57:15.614Z,99763.95
2018-05-03T19:03:20.057Z,99770.06
2018-05-03T19:09:24.600Z,99789.95
2018-05-03T19:15:28.908Z,99803.55
2018-05-03T19:21:33.324Z,99806.34
2018-05-03T19:27:37.671Z,99802.95
2018-05-03T19:33:42.030Z,99817.45
2018-05-03T19:39:46.387Z,99829.66
2018-05-03T19:45:51.423Z,99835.77
2018-05-03T19:51:56.015Z,99843.71
2018-05-03T19:58:00.577Z,99849.27
2018-05-03T20:04:05.714Z,99850.45
2018-05-03T20:10:10.058Z,99860.92
2018-05-03T20:16:15.263Z,99862.17
2018-05-03T20:22:19.823Z,99872.44
2018-05-03T20:28:24.437Z,99868.12
2018-05-03T20:34:28.832Z,99861.38
2018-05-03T20:40:33.289Z,99874.44
2018-05-03T20:46:37.644Z,99881.95
2018-05-03T20:52:42.081Z,99888.53
2018-05-03T20:58:46.445Z,99887.84
2018-05-03T21:04:52.032Z,99896.18
2018-05-03T21:10:56.445Z,99902.24
2018-05-03T21:17:01.641Z,99898.97
2018-05-03T21:23:06.040Z,99896.11
2018-05-03T21:29:10.445Z,99898.36
2018-05-03T21:35:14.810Z,99910.36
2018-05-03T21:41:19.467Z,99919.61
2018-05-03T21:47:24.123Z,99926.76
2018-05-03T21:53:28.469Z,99925.06
2018-05-03T21:59:32.913Z,99926.45
2018-05-03T22:05:37.378Z,99933.64
2018-05-03T22:11:41.782Z,99924.91
2018-05-03T22:17:46.142Z,99939.03
2018-05-03T22:23:51.244Z,99935.77
2018-05-03T22:29:55.753Z,99933.39
2018-05-03T22:36:00.102Z,99946.09
2018-05-03T22:42:04.507Z,99944.15
2018-05-03T22:48:08.878Z,99945.33
2018-05-03T22:54:13.236Z,99944.50
2018-05-03T23:00:17.585Z,99943.77
2018-05-03T23:06:21.670Z,99928.00
2018-05-03T23:12:26.007Z,99932.95
2018-05-03T23:18:32.041Z,99934.91
2018-05-03T23:24:36.751Z,99940.92
2018-05-03T23:30:41.108Z,99929.31
2018-05-03T23:36:45.461Z,99928.34
2018-05-03T23:42:51.379Z,99929.26
2018-05-03T23:48:56.485Z,99941.19
2018-05-03T23:55:00.825Z,99937.77
